sensor_id;sensor_type;location;lat;lon;timestamp;P1;durP1;ratioP1;P2;durP2;ratioP2
6860;SDS011;3469;47.060;15.460;2023-03-14T00:02:09;15.57;;;11.83;;
6860;SDS011;3469;47.060;15.460;2023-03-14T00:04:38;15.33;;;11.90;;
6860;SDS011;3469;47.060;15.460;2023-03-14T00:07:06;15.87;;;11.27;;
6860;SDS011;3469;47.060;15.460;2023-03-14T00:09:36;17.00;;;12.90;;
6860;SDS011;3469;47.060;15.460;2023-03-14T00:12:04;20.07;;;12.20;;
6860;SDS011;3469;47.060;15.460;2023-03-14T00:14:34;16.80;;;12.27;;
6860;SDS011;3469;47.060;15.460;2023-03-14T00:17:02;19.77;;;11.13;;
6860;SDS011;3469;47.060;15.460;2023-03-14T00:19:31;20.07;;;11.93;;
6860;SDS011;3469;47.060;15.460;2023-03-14T00:21:59;14.10;;;8.97;;
6860;SDS011;3469;47.060;15.460;2023-03-14T00:24:28;12.87;;;9.27;;
6860;SDS011;3469;47.060;15.460;2023-03-14T00:26:58;13.30;;;9.00;;
6860;SDS011;3469;47.060;15.460;2023-03-14T00:29:26;12.73;;;8.60;;
6860;SDS011;3469;47.060;15.460;2023-03-14T00:31:55;12.00;;;8.93;;
6860;SDS011;3469;47.060;15.460;2023-03-14T00:34:23;21.30;;;8.23;;
6860;SDS011;3469;47.060;15.460;2023-03-14T00:36:52;12.43;;;8.23;;
6860;SDS011;3469;47.060;15.460;2023-03-14T00:39:20;14.20;;;6.77;;
6860;SDS011;3469;47.060;15.460;2023-03-14T00:41:50;10.10;;;7.03;;
6860;SDS011;3469;47.060;15.460;2023-03-14T00:44:20;11.67;;;8.13;;
6860;SDS011;3469;47.060;15.460;2023-03-14T00:46:48;9.30;;;7.60;;
6860;SDS011;3469;47.060;15.460;2023-03-14T00:49:17;10.33;;;8.23;;
6860;SDS011;3469;47.060;15.460;2023-03-14T00:51:45;8.60;;;6.77;;
6860;SDS011;3469;47.060;15.460;2023-03-14T00:54:13;10.87;;;7.70;;
6860;SDS011;3469;47.060;15.460;2023-03-14T00:56:42;10.40;;;6.67;;
6860;SDS011;3469;47.060;15.460;2023-03-14T00:59:11;9.53;;;6.80;;
6860;SDS011;3469;47.060;15.460;2023-03-14T01:01:41;8.30;;;5.80;;
6860;SDS011;3469;47.060;15.460;2023-03-14T01:04:09;7.73;;;5.03;;
6860;SDS011;3469;47.060;15.460;2023-03-14T01:06:38;9.37;;;6.30;;
6860;SDS011;3469;47.060;15.460;2023-03-14T01:09:09;6.33;;;5.30;;
6860;SDS011;3469;47.060;15.460;2023-03-14T01:11:37;7.43;;;6.10;;
6860;SDS011;3469;47.060;15.460;2023-03-14T01:14:06;10.07;;;6.07;;
6860;SDS011;3469;47.060;15.460;2023-03-14T01:16:35;10.17;;;6.23;;
6860;SDS011;3469;47.060;15.460;2023-03-14T01:19:04;7.33;;;5.40;;
6860;SDS011;3469;47.060;15.460;2023-03-14T01:21:33;6.93;;;5.17;;
6860;SDS011;3469;47.060;15.460;2023-03-14T01:24:04;8.00;;;5.83;;
6860;SDS011;3469;47.060;15.460;2023-03-14T01:26:33;7.60;;;5.77;;
6860;SDS011;3469;47.060;15.460;2023-03-14T01:29:05;8.77;;;5.60;;
6860;SDS011;3469;47.060;15.460;2023-03-14T01:31:36;12.90;;;6.13;;
6860;SDS011;3469;47.060;15.460;2023-03-14T01:34:06;7.20;;;4.83;;
6860;SDS011;3469;47.060;15.460;2023-03-14T01:36:35;7.43;;;4.53;;
6860;SDS011;3469;47.060;15.460;2023-03-14T01:39:04;7.63;;;5.20;;
6860;SDS011;3469;47.060;15.460;2023-03-14T01:41:34;7.90;;;5.03;;
6860;SDS011;3469;47.060;15.460;2023-03-14T01:44:03;9.27;;;4.90;;
6860;SDS011;3469;47.060;15.460;2023-03-14T01:46:36;7.57;;;5.07;;
6860;SDS011;3469;47.060;15.460;2023-03-14T01:52:00;7.10;;;5.20;;
6860;SDS011;3469;47.060;15.460;2023-03-14T01:54:31;7.90;;;5.40;;
6860;SDS011;3469;47.060;15.460;2023-03-14T01:57:05;6.63;;;4.90;;
6860;SDS011;3469;47.060;15.460;2023-03-14T01:59:35;8.10;;;6.47;;
6860;SDS011;3469;47.060;15.460;2023-03-14T02:02:05;5.97;;;4.97;;
6860;SDS011;3469;47.060;15.460;2023-03-14T02:04:36;6.40;;;4.93;;
6860;SDS011;3469;47.060;15.460;2023-03-14T02:07:07;9.37;;;5.57;;
6860;SDS011;3469;47.060;15.460;2023-03-14T02:09:43;7.70;;;5.43;;
6860;SDS011;3469;47.060;15.460;2023-03-14T02:12:19;7.73;;;5.43;;
6860;SDS011;3469;47.060;15.460;2023-03-14T02:15:08;7.60;;;4.83;;
6860;SDS011;3469;47.060;15.460;2023-03-14T02:17:50;8.83;;;5.70;;
6860;SDS011;3469;47.060;15.460;2023-03-14T02:20:51;7.77;;;5.87;;
6860;SDS011;3469;47.060;15.460;2023-03-14T02:23:24;7.67;;;5.33;;
6860;SDS011;3469;47.060;15.460;2023-03-14T02:25:58;4.77;;;3.70;;
6860;SDS011;3469;47.060;15.460;2023-03-14T02:28:32;9.97;;;5.30;;
6860;SDS011;3469;47.060;15.460;2023-03-14T02:31:02;7.07;;;4.60;;
6860;SDS011;3469;47.060;15.460;2023-03-14T02:33:33;7.53;;;6.50;;
6860;SDS011;3469;47.060;15.460;2023-03-14T02:36:04;5.73;;;5.10;;
6860;SDS011;3469;47.060;15.460;2023-03-14T02:38:35;10.23;;;5.30;;
6860;SDS011;3469;47.060;15.460;2023-03-14T02:41:06;6.80;;;4.70;;
6860;SDS011;3469;47.060;15.460;2023-03-14T02:43:42;6.30;;;4.63;;
6860;SDS011;3469;47.060;15.460;2023-03-14T02:46:12;7.50;;;5.07;;
6860;SDS011;3469;47.060;15.460;2023-03-14T02:48:42;7.67;;;5.30;;
6860;SDS011;3469;47.060;15.460;2023-03-14T02:51:13;8.30;;;4.50;;
6860;SDS011;3469;47.060;15.460;2023-03-14T02:53:46;5.80;;;4.73;;
6860;SDS011;3469;47.060;15.460;2023-03-14T02:56:15;5.37;;;4.10;;
6860;SDS011;3469;47.060;15.460;2023-03-14T02:58:45;4.80;;;3.73;;
6860;SDS011;3469;47.060;15.460;2023-03-14T03:01:32;8.73;;;4.40;;
6860;SDS011;3469;47.060;15.460;2023-03-14T03:04:01;3.90;;;3.03;;
6860;SDS011;3469;47.060;15.460;2023-03-14T03:06:29;7.97;;;4.83;;
6860;SDS011;3469;47.060;15.460;2023-03-14T03:08:59;9.20;;;5.87;;
6860;SDS011;3469;47.060;15.460;2023-03-14T03:11:28;8.33;;;4.20;;
6860;SDS011;3469;47.060;15.460;2023-03-14T03:14:00;5.50;;;4.27;;
6860;SDS011;3469;47.060;15.460;2023-03-14T03:16:28;5.10;;;4.00;;
6860;SDS011;3469;47.060;15.460;2023-03-14T03:18:57;6.27;;;4.20;;
6860;SDS011;3469;47.060;15.460;2023-03-14T03:21:26;5.63;;;3.87;;
6860;SDS011;3469;47.060;15.460;2023-03-14T03:23:54;7.63;;;4.07;;
6860;SDS011;3469;47.060;15.460;2023-03-14T03:26:23;7.77;;;4.27;;
6860;SDS011;3469;47.060;15.460;2023-03-14T03:28:51;8.47;;;4.13;;
6860;SDS011;3469;47.060;15.460;2023-03-14T03:31:23;5.60;;;3.30;;
6860;SDS011;3469;47.060;15.460;2023-03-14T03:33:51;4.40;;;3.70;;
6860;SDS011;3469;47.060;15.460;2023-03-14T03:36:20;5.10;;;3.50;;
6860;SDS011;3469;47.060;15.460;2023-03-14T03:38:50;6.23;;;4.30;;
6860;SDS011;3469;47.060;15.460;2023-03-14T03:41:18;5.83;;;3.90;;
6860;SDS011;3469;47.060;15.460;2023-03-14T03:43:48;5.60;;;3.83;;
6860;SDS011;3469;47.060;15.460;2023-03-14T03:46:17;5.67;;;3.67;;
6860;SDS011;3469;47.060;15.460;2023-03-14T03:48:46;7.17;;;3.83;;
6860;SDS011;3469;47.060;15.460;2023-03-14T03:51:15;4.97;;;3.27;;
6860;SDS011;3469;47.060;15.460;2023-03-14T03:53:44;5.60;;;4.23;;
6860;SDS011;3469;47.060;15.460;2023-03-14T03:56:15;4.20;;;2.10;;
6860;SDS011;3469;47.060;15.460;2023-03-14T03:58:44;8.97;;;3.37;;
6860;SDS011;3469;47.060;15.460;2023-03-14T04:01:13;4.50;;;3.07;;
6860;SDS011;3469;47.060;15.460;2023-03-14T04:03:44;6.67;;;4.07;;
6860;SDS011;3469;47.060;15.460;2023-03-14T04:06:14;4.43;;;3.53;;
6860;SDS011;3469;47.060;15.460;2023-03-14T04:08:45;5.20;;;3.87;;
6860;SDS011;3469;47.060;15.460;2023-03-14T04:11:26;3.20;;;2.23;;
6860;SDS011;3469;47.060;15.460;2023-03-14T04:14:01;4.40;;;2.10;;
6860;SDS011;3469;47.060;15.460;2023-03-14T04:16:29;5.53;;;4.10;;
6860;SDS011;3469;47.060;15.460;2023-03-14T04:19:07;5.00;;;3.43;;
6860;SDS011;3469;47.060;15.460;2023-03-14T04:21:37;7.03;;;3.50;;
6860;SDS011;3469;47.060;15.460;2023-03-14T04:24:12;3.17;;;2.63;;
6860;SDS011;3469;47.060;15.460;2023-03-14T04:26:43;3.83;;;3.43;;
6860;SDS011;3469;47.060;15.460;2023-03-14T04:29:12;6.37;;;3.97;;
6860;SDS011;3469;47.060;15.460;2023-03-14T04:31:43;6.67;;;3.87;;
6860;SDS011;3469;47.060;15.460;2023-03-14T04:34:12;4.33;;;3.50;;
6860;SDS011;3469;47.060;15.460;2023-03-14T04:36:48;4.10;;;2.93;;
6860;SDS011;3469;47.060;15.460;2023-03-14T04:39:22;5.90;;;3.20;;
6860;SDS011;3469;47.060;15.460;2023-03-14T04:42:02;4.40;;;3.30;;
6860;SDS011;3469;47.060;15.460;2023-03-14T04:44:31;6.40;;;3.43;;
6860;SDS011;3469;47.060;15.460;2023-03-14T04:47:00;17.73;;;3.50;;
6860;SDS011;3469;47.060;15.460;2023-03-14T04:49:29;6.00;;;2.33;;
6860;SDS011;3469;47.060;15.460;2023-03-14T04:52:00;11.03;;;3.10;;
6860;SDS011;3469;47.060;15.460;2023-03-14T04:54:30;5.33;;;3.77;;
6860;SDS011;3469;47.060;15.460;2023-03-14T04:56:59;7.37;;;3.47;;
6860;SDS011;3469;47.060;15.460;2023-03-14T04:59:31;6.00;;;3.33;;
6860;SDS011;3469;47.060;15.460;2023-03-14T05:02:10;5.80;;;2.87;;
6860;SDS011;3469;47.060;15.460;2023-03-14T05:04:53;3.90;;;3.30;;
6860;SDS011;3469;47.060;15.460;2023-03-14T05:07:42;7.07;;;2.90;;
6860;SDS011;3469;47.060;15.460;2023-03-14T05:10:29;5.37;;;2.87;;
6860;SDS011;3469;47.060;15.460;2023-03-14T05:13:11;3.70;;;2.57;;
6860;SDS011;3469;47.060;15.460;2023-03-14T05:15:48;3.93;;;3.53;;
6860;SDS011;3469;47.060;15.460;2023-03-14T05:18:30;3.80;;;3.13;;
6860;SDS011;3469;47.060;15.460;2023-03-14T05:21:11;4.53;;;3.10;;
6860;SDS011;3469;47.060;15.460;2023-03-14T05:24:06;6.20;;;4.40;;
6860;SDS011;3469;47.060;15.460;2023-03-14T05:26:57;4.93;;;3.67;;
6860;SDS011;3469;47.060;15.460;2023-03-14T05:29:50;3.70;;;2.50;;
6860;SDS011;3469;47.060;15.460;2023-03-14T05:32:37;4.93;;;2.90;;
6860;SDS011;3469;47.060;15.460;2023-03-14T05:35:29;7.30;;;3.37;;
6860;SDS011;3469;47.060;15.460;2023-03-14T05:38:16;8.60;;;3.77;;
6860;SDS011;3469;47.060;15.460;2023-03-14T05:41:12;6.20;;;3.97;;
6860;SDS011;3469;47.060;15.460;2023-03-14T05:44:14;9.77;;;4.00;;
6860;SDS011;3469;47.060;15.460;2023-03-14T05:47:00;8.03;;;5.03;;
6860;SDS011;3469;47.060;15.460;2023-03-14T05:49:40;4.20;;;2.87;;
6860;SDS011;3469;47.060;15.460;2023-03-14T05:52:28;3.50;;;3.20;;
6860;SDS011;3469;47.060;15.460;2023-03-14T05:55:25;6.53;;;3.70;;
6860;SDS011;3469;47.060;15.460;2023-03-14T05:57:55;5.40;;;3.10;;
6860;SDS011;3469;47.060;15.460;2023-03-14T06:00:49;5.57;;;3.30;;
6860;SDS011;3469;47.060;15.460;2023-03-14T06:03:34;5.20;;;3.70;;
6860;SDS011;3469;47.060;15.460;2023-03-14T06:06:03;5.37;;;3.80;;
6860;SDS011;3469;47.060;15.460;2023-03-14T06:08:32;9.93;;;4.10;;
6860;SDS011;3469;47.060;15.460;2023-03-14T06:11:03;5.80;;;4.03;;
6860;SDS011;3469;47.060;15.460;2023-03-14T06:13:34;7.10;;;3.93;;
6860;SDS011;3469;47.060;15.460;2023-03-14T06:16:02;4.27;;;3.03;;
6860;SDS011;3469;47.060;15.460;2023-03-14T06:18:31;8.37;;;3.70;;
6860;SDS011;3469;47.060;15.460;2023-03-14T06:21:00;9.80;;;5.37;;
6860;SDS011;3469;47.060;15.460;2023-03-14T06:23:29;7.03;;;3.40;;
6860;SDS011;3469;47.060;15.460;2023-03-14T06:25:59;7.90;;;3.63;;
6860;SDS011;3469;47.060;15.460;2023-03-14T06:28:27;8.43;;;3.40;;
6860;SDS011;3469;47.060;15.460;2023-03-14T06:31:00;4.70;;;3.30;;
6860;SDS011;3469;47.060;15.460;2023-03-14T06:33:37;7.90;;;4.30;;
6860;SDS011;3469;47.060;15.460;2023-03-14T06:36:07;9.90;;;3.90;;
6860;SDS011;3469;47.060;15.460;2023-03-14T06:38:39;5.83;;;3.30;;
6860;SDS011;3469;47.060;15.460;2023-03-14T06:41:07;6.17;;;3.80;;
6860;SDS011;3469;47.060;15.460;2023-03-14T06:43:40;7.03;;;5.80;;
6860;SDS011;3469;47.060;15.460;2023-03-14T06:46:10;6.20;;;4.13;;
6860;SDS011;3469;47.060;15.460;2023-03-14T06:48:42;7.60;;;4.40;;
6860;SDS011;3469;47.060;15.460;2023-03-14T06:51:12;8.60;;;3.80;;
6860;SDS011;3469;47.060;15.460;2023-03-14T06:53:41;8.40;;;3.93;;
6860;SDS011;3469;47.060;15.460;2023-03-14T06:56:15;13.80;;;3.90;;
6860;SDS011;3469;47.060;15.460;2023-03-14T06:58:43;5.00;;;4.47;;
6860;SDS011;3469;47.060;15.460;2023-03-14T07:01:22;7.00;;;3.90;;
6860;SDS011;3469;47.060;15.460;2023-03-14T07:03:54;7.57;;;4.53;;
6860;SDS011;3469;47.060;15.460;2023-03-14T07:06:22;8.37;;;3.50;;
6860;SDS011;3469;47.060;15.460;2023-03-14T07:08:52;7.87;;;4.40;;
6860;SDS011;3469;47.060;15.460;2023-03-14T07:11:21;4.63;;;3.97;;
6860;SDS011;3469;47.060;15.460;2023-03-14T07:13:52;5.23;;;3.70;;
6860;SDS011;3469;47.060;15.460;2023-03-14T07:16:24;5.13;;;3.80;;
6860;SDS011;3469;47.060;15.460;2023-03-14T07:18:55;9.33;;;4.20;;
6860;SDS011;3469;47.060;15.460;2023-03-14T07:21:25;5.93;;;3.53;;
6860;SDS011;3469;47.060;15.460;2023-03-14T07:23:57;9.70;;;3.70;;
6860;SDS011;3469;47.060;15.460;2023-03-14T07:26:25;8.70;;;3.97;;
6860;SDS011;3469;47.060;15.460;2023-03-14T07:28:53;8.77;;;3.70;;
6860;SDS011;3469;47.060;15.460;2023-03-14T07:31:23;7.23;;;4.43;;
6860;SDS011;3469;47.060;15.460;2023-03-14T07:33:52;8.40;;;4.80;;
6860;SDS011;3469;47.060;15.460;2023-03-14T07:36:22;5.93;;;3.83;;
6860;SDS011;3469;47.060;15.460;2023-03-14T07:38:51;10.47;;;3.77;;
6860;SDS011;3469;47.060;15.460;2023-03-14T07:41:38;4.63;;;3.10;;
6860;SDS011;3469;47.060;15.460;2023-03-14T07:44:38;10.87;;;4.27;;
6860;SDS011;3469;47.060;15.460;2023-03-14T07:47:09;7.60;;;3.23;;
6860;SDS011;3469;47.060;15.460;2023-03-14T07:49:39;6.60;;;3.43;;
6860;SDS011;3469;47.060;15.460;2023-03-14T07:52:07;4.50;;;2.87;;
6860;SDS011;3469;47.060;15.460;2023-03-14T07:54:36;8.80;;;3.20;;
6860;SDS011;3469;47.060;15.460;2023-03-14T07:57:06;5.43;;;3.30;;
6860;SDS011;3469;47.060;15.460;2023-03-14T07:59:34;5.53;;;2.77;;
6860;SDS011;3469;47.060;15.460;2023-03-14T08:02:02;8.20;;;4.23;;
6860;SDS011;3469;47.060;15.460;2023-03-14T08:04:33;4.33;;;2.77;;
6860;SDS011;3469;47.060;15.460;2023-03-14T08:07:02;6.07;;;2.40;;
6860;SDS011;3469;47.060;15.460;2023-03-14T08:09:30;4.83;;;2.57;;
6860;SDS011;3469;47.060;15.460;2023-03-14T08:11:59;5.87;;;2.47;;
6860;SDS011;3469;47.060;15.460;2023-03-14T08:14:29;4.33;;;2.57;;
6860;SDS011;3469;47.060;15.460;2023-03-14T08:16:57;7.47;;;2.40;;
6860;SDS011;3469;47.060;15.460;2023-03-14T08:19:26;6.50;;;2.70;;
6860;SDS011;3469;47.060;15.460;2023-03-14T08:21:56;5.40;;;1.90;;
6860;SDS011;3469;47.060;15.460;2023-03-14T08:24:25;4.20;;;1.80;;
6860;SDS011;3469;47.060;15.460;2023-03-14T08:26:54;3.20;;;2.13;;
6860;SDS011;3469;47.060;15.460;2023-03-14T08:29:24;4.77;;;1.90;;
6860;SDS011;3469;47.060;15.460;2023-03-14T08:31:53;3.20;;;1.80;;
6860;SDS011;3469;47.060;15.460;2023-03-14T08:34:21;3.73;;;2.00;;
6860;SDS011;3469;47.060;15.460;2023-03-14T08:36:52;5.07;;;2.20;;
6860;SDS011;3469;47.060;15.460;2023-03-14T08:39:25;2.23;;;1.60;;
6860;SDS011;3469;47.060;15.460;2023-03-14T08:41:55;5.63;;;1.60;;
6860;SDS011;3469;47.060;15.460;2023-03-14T08:44:25;5.90;;;1.73;;
6860;SDS011;3469;47.060;15.460;2023-03-14T08:46:55;4.50;;;1.97;;
6860;SDS011;3469;47.060;15.460;2023-03-14T08:49:28;3.50;;;2.00;;
6860;SDS011;3469;47.060;15.460;2023-03-14T08:51:58;3.40;;;2.00;;
6860;SDS011;3469;47.060;15.460;2023-03-14T08:54:29;5.93;;;1.90;;
6860;SDS011;3469;47.060;15.460;2023-03-14T08:56:57;4.63;;;1.83;;
6860;SDS011;3469;47.060;15.460;2023-03-14T08:59:26;5.00;;;2.00;;
6860;SDS011;3469;47.060;15.460;2023-03-14T09:01:55;5.27;;;1.90;;
6860;SDS011;3469;47.060;15.460;2023-03-14T09:04:24;2.30;;;1.40;;
6860;SDS011;3469;47.060;15.460;2023-03-14T09:06:53;2.33;;;1.53;;
6860;SDS011;3469;47.060;15.460;2023-03-14T09:09:24;2.83;;;1.43;;
6860;SDS011;3469;47.060;15.460;2023-03-14T09:11:55;2.43;;;1.70;;
6860;SDS011;3469;47.060;15.460;2023-03-14T09:14:25;4.37;;;2.13;;
6860;SDS011;3469;47.060;15.460;2023-03-14T09:16:54;1.67;;;1.20;;
6860;SDS011;3469;47.060;15.460;2023-03-14T09:19:23;3.50;;;2.17;;
6860;SDS011;3469;47.060;15.460;2023-03-14T09:21:51;2.90;;;1.40;;
6860;SDS011;3469;47.060;15.460;2023-03-14T09:24:22;3.67;;;1.87;;
6860;SDS011;3469;47.060;15.460;2023-03-14T09:26:50;5.60;;;1.60;;
6860;SDS011;3469;47.060;15.460;2023-03-14T09:29:20;3.10;;;1.47;;
6860;SDS011;3469;47.060;15.460;2023-03-14T09:31:49;1.87;;;1.40;;
6860;SDS011;3469;47.060;15.460;2023-03-14T09:34:17;4.23;;;1.97;;
6860;SDS011;3469;47.060;15.460;2023-03-14T09:36:46;5.10;;;1.73;;
6860;SDS011;3469;47.060;15.460;2023-03-14T09:39:15;4.83;;;2.00;;
6860;SDS011;3469;47.060;15.460;2023-03-14T09:41:44;3.27;;;2.10;;
6860;SDS011;3469;47.060;15.460;2023-03-14T09:44:16;2.00;;;1.70;;
6860;SDS011;3469;47.060;15.460;2023-03-14T09:46:50;3.20;;;1.67;;
6860;SDS011;3469;47.060;15.460;2023-03-14T09:49:20;4.80;;;1.60;;
6860;SDS011;3469;47.060;15.460;2023-03-14T09:51:51;4.43;;;1.70;;
6860;SDS011;3469;47.060;15.460;2023-03-14T09:54:30;1.80;;;1.00;;
6860;SDS011;3469;47.060;15.460;2023-03-14T09:57:00;4.73;;;1.90;;
6860;SDS011;3469;47.060;15.460;2023-03-14T09:59:30;4.00;;;1.80;;
6860;SDS011;3469;47.060;15.460;2023-03-14T10:02:01;3.27;;;1.20;;
6860;SDS011;3469;47.060;15.460;2023-03-14T10:04:32;2.03;;;1.30;;
6860;SDS011;3469;47.060;15.460;2023-03-14T10:07:02;1.80;;;1.10;;
6860;SDS011;3469;47.060;15.460;2023-03-14T10:09:30;4.47;;;1.70;;
6860;SDS011;3469;47.060;15.460;2023-03-14T10:11:59;7.43;;;1.60;;
6860;SDS011;3469;47.060;15.460;2023-03-14T10:14:28;3.43;;;1.00;;
6860;SDS011;3469;47.060;15.460;2023-03-14T10:17:05;3.90;;;1.33;;
6860;SDS011;3469;47.060;15.460;2023-03-14T10:19:36;3.57;;;1.47;;
6860;SDS011;3469;47.060;15.460;2023-03-14T10:22:10;4.20;;;1.13;;
6860;SDS011;3469;47.060;15.460;2023-03-14T10:24:47;2.53;;;1.40;;
6860;SDS011;3469;47.060;15.460;2023-03-14T10:27:28;3.03;;;1.40;;
6860;SDS011;3469;47.060;15.460;2023-03-14T10:29:58;4.20;;;1.43;;
6860;SDS011;3469;47.060;15.460;2023-03-14T10:32:31;6.83;;;2.40;;
6860;SDS011;3469;47.060;15.460;2023-03-14T10:35:05;7.53;;;2.17;;
6860;SDS011;3469;47.060;15.460;2023-03-14T10:37:46;4.83;;;1.47;;
6860;SDS011;3469;47.060;15.460;2023-03-14T10:40:16;6.70;;;2.30;;
6860;SDS011;3469;47.060;15.460;2023-03-14T10:42:47;3.07;;;1.83;;
6860;SDS011;3469;47.060;15.460;2023-03-14T10:45:25;2.10;;;1.30;;
6860;SDS011;3469;47.060;15.460;2023-03-14T10:47:59;2.60;;;1.40;;
6860;SDS011;3469;47.060;15.460;2023-03-14T10:50:35;1.80;;;1.03;;
6860;SDS011;3469;47.060;15.460;2023-03-14T10:53:05;2.20;;;1.03;;
6860;SDS011;3469;47.060;15.460;2023-03-14T10:55:39;3.00;;;1.20;;
6860;SDS011;3469;47.060;15.460;2023-03-14T10:58:20;3.50;;;1.10;;
6860;SDS011;3469;47.060;15.460;2023-03-14T11:00:52;5.80;;;1.60;;
6860;SDS011;3469;47.060;15.460;2023-03-14T11:03:27;6.20;;;1.30;;
6860;SDS011;3469;47.060;15.460;2023-03-14T11:06:01;2.10;;;0.50;;
6860;SDS011;3469;47.060;15.460;2023-03-14T11:08:36;0.90;;;0.60;;
6860;SDS011;3469;47.060;15.460;2023-03-14T11:11:14;1.40;;;0.50;;
6860;SDS011;3469;47.060;15.460;2023-03-14T11:14:13;2.57;;;0.63;;
6860;SDS011;3469;47.060;15.460;2023-03-14T11:16:49;0.87;;;0.50;;
6860;SDS011;3469;47.060;15.460;2023-03-14T11:19:27;3.47;;;0.60;;
6860;SDS011;3469;47.060;15.460;2023-03-14T11:22:04;2.40;;;0.70;;
6860;SDS011;3469;47.060;15.460;2023-03-14T11:24:46;1.00;;;0.60;;
6860;SDS011;3469;47.060;15.460;2023-03-14T11:27:28;1.67;;;0.63;;
6860;SDS011;3469;47.060;15.460;2023-03-14T11:30:01;5.60;;;1.27;;
6860;SDS011;3469;47.060;15.460;2023-03-14T11:32:36;3.33;;;0.80;;
6860;SDS011;3469;47.060;15.460;2023-03-14T11:35:15;0.90;;;0.57;;
6860;SDS011;3469;47.060;15.460;2023-03-14T11:37:47;3.03;;;0.93;;
6860;SDS011;3469;47.060;15.460;2023-03-14T11:40:21;2.40;;;0.93;;
6860;SDS011;3469;47.060;15.460;2023-03-14T11:42:54;0.70;;;0.40;;
6860;SDS011;3469;47.060;15.460;2023-03-14T11:45:28;1.13;;;0.50;;
6860;SDS011;3469;47.060;15.460;2023-03-14T11:48:05;0.80;;;0.40;;
6860;SDS011;3469;47.060;15.460;2023-03-14T11:50:43;1.00;;;0.40;;
6860;SDS011;3469;47.060;15.460;2023-03-14T11:53:13;4.40;;;0.50;;
6860;SDS011;3469;47.060;15.460;2023-03-14T11:55:42;1.37;;;0.50;;
6860;SDS011;3469;47.060;15.460;2023-03-14T11:58:13;5.67;;;0.57;;
6860;SDS011;3469;47.060;15.460;2023-03-14T12:00:44;1.10;;;0.40;;
6860;SDS011;3469;47.060;15.460;2023-03-14T12:03:17;1.30;;;0.60;;
6860;SDS011;3469;47.060;15.460;2023-03-14T12:05:56;0.97;;;0.50;;
6860;SDS011;3469;47.060;15.460;2023-03-14T12:08:37;0.87;;;0.53;;
6860;SDS011;3469;47.060;15.460;2023-03-14T12:11:10;2.40;;;0.50;;
6860;SDS011;3469;47.060;15.460;2023-03-14T12:13:47;0.70;;;0.40;;
6860;SDS011;3469;47.060;15.460;2023-03-14T12:19:21;0.97;;;0.60;;
6860;SDS011;3469;47.060;15.460;2023-03-14T12:21:57;0.60;;;0.37;;
6860;SDS011;3469;47.060;15.460;2023-03-14T12:24:27;4.77;;;0.50;;
6860;SDS011;3469;47.060;15.460;2023-03-14T12:26:59;1.00;;;0.40;;
6860;SDS011;3469;47.060;15.460;2023-03-14T12:29:29;0.80;;;0.40;;
6860;SDS011;3469;47.060;15.460;2023-03-14T12:32:09;1.60;;;0.67;;
6860;SDS011;3469;47.060;15.460;2023-03-14T12:34:49;2.83;;;0.73;;
6860;SDS011;3469;47.060;15.460;2023-03-14T12:40:06;1.90;;;0.70;;
6860;SDS011;3469;47.060;15.460;2023-03-14T12:42:51;0.87;;;0.50;;
6860;SDS011;3469;47.060;15.460;2023-03-14T12:45:27;1.73;;;0.73;;
6860;SDS011;3469;47.060;15.460;2023-03-14T12:48:01;4.10;;;0.90;;
6860;SDS011;3469;47.060;15.460;2023-03-14T12:50:43;4.30;;;1.00;;
6860;SDS011;3469;47.060;15.460;2023-03-14T12:53:36;1.67;;;0.90;;
6860;SDS011;3469;47.060;15.460;2023-03-14T12:56:35;4.73;;;1.20;;
6860;SDS011;3469;47.060;15.460;2023-03-14T13:02:26;1.60;;;0.90;;
6860;SDS011;3469;47.060;15.460;2023-03-14T13:05:02;2.40;;;0.83;;
6860;SDS011;3469;47.060;15.460;2023-03-14T13:10:39;2.20;;;1.10;;
6860;SDS011;3469;47.060;15.460;2023-03-14T13:13:14;2.00;;;1.03;;
6860;SDS011;3469;47.060;15.460;2023-03-14T13:15:47;1.30;;;1.03;;
6860;SDS011;3469;47.060;15.460;2023-03-14T13:18:18;5.10;;;1.20;;
6860;SDS011;3469;47.060;15.460;2023-03-14T13:20:55;4.70;;;1.00;;
6860;SDS011;3469;47.060;15.460;2023-03-14T13:23:28;2.80;;;1.20;;
6860;SDS011;3469;47.060;15.460;2023-03-14T13:25:59;1.70;;;0.90;;
6860;SDS011;3469;47.060;15.460;2023-03-14T13:28:28;15.17;;;1.57;;
6860;SDS011;3469;47.060;15.460;2023-03-14T13:30:58;2.70;;;0.90;;
6860;SDS011;3469;47.060;15.460;2023-03-14T13:33:28;4.63;;;1.93;;
6860;SDS011;3469;47.060;15.460;2023-03-14T13:35:59;3.70;;;1.77;;
6860;SDS011;3469;47.060;15.460;2023-03-14T13:38:29;2.03;;;1.27;;
6860;SDS011;3469;47.060;15.460;2023-03-14T13:41:04;3.30;;;1.10;;
6860;SDS011;3469;47.060;15.460;2023-03-14T13:43:35;3.00;;;0.97;;
6860;SDS011;3469;47.060;15.460;2023-03-14T13:46:05;3.83;;;0.90;;
6860;SDS011;3469;47.060;15.460;2023-03-14T13:48:36;2.27;;;0.70;;
6860;SDS011;3469;47.060;15.460;2023-03-14T13:51:10;1.30;;;0.67;;
6860;SDS011;3469;47.060;15.460;2023-03-14T13:53:43;1.40;;;0.70;;
6860;SDS011;3469;47.060;15.460;2023-03-14T13:56:14;1.20;;;0.80;;
6860;SDS011;3469;47.060;15.460;2023-03-14T13:58:45;0.90;;;0.60;;
6860;SDS011;3469;47.060;15.460;2023-03-14T14:01:14;1.10;;;0.70;;
6860;SDS011;3469;47.060;15.460;2023-03-14T14:03:45;1.63;;;0.70;;
6860;SDS011;3469;47.060;15.460;2023-03-14T14:06:21;1.10;;;0.80;;
6860;SDS011;3469;47.060;15.460;2023-03-14T14:08:53;1.77;;;0.80;;
6860;SDS011;3469;47.060;15.460;2023-03-14T14:11:26;1.40;;;0.70;;
6860;SDS011;3469;47.060;15.460;2023-03-14T14:14:17;2.50;;;0.97;;
6860;SDS011;3469;47.060;15.460;2023-03-14T14:16:49;2.67;;;0.80;;
6860;SDS011;3469;47.060;15.460;2023-03-14T14:19:19;2.73;;;0.93;;
6860;SDS011;3469;47.060;15.460;2023-03-14T14:21:50;1.10;;;0.80;;
6860;SDS011;3469;47.060;15.460;2023-03-14T14:24:18;2.30;;;0.80;;
6860;SDS011;3469;47.060;15.460;2023-03-14T14:26:52;1.23;;;0.63;;
6860;SDS011;3469;47.060;15.460;2023-03-14T14:29:26;2.60;;;0.90;;
6860;SDS011;3469;47.060;15.460;2023-03-14T14:32:03;2.13;;;1.20;;
6860;SDS011;3469;47.060;15.460;2023-03-14T14:34:41;1.40;;;0.60;;
6860;SDS011;3469;47.060;15.460;2023-03-14T14:37:19;1.20;;;0.63;;
6860;SDS011;3469;47.060;15.460;2023-03-14T14:39:53;2.43;;;0.70;;
6860;SDS011;3469;47.060;15.460;2023-03-14T14:42:26;2.83;;;1.00;;
6860;SDS011;3469;47.060;15.460;2023-03-14T14:44:56;1.47;;;1.00;;
6860;SDS011;3469;47.060;15.460;2023-03-14T14:47:28;2.50;;;0.70;;
6860;SDS011;3469;47.060;15.460;2023-03-14T14:49:58;2.13;;;1.07;;
6860;SDS011;3469;47.060;15.460;2023-03-14T14:52:33;2.17;;;0.87;;
6860;SDS011;3469;47.060;15.460;2023-03-14T14:55:11;2.50;;;0.93;;
6860;SDS011;3469;47.060;15.460;2023-03-14T14:57:41;3.13;;;0.97;;
6860;SDS011;3469;47.060;15.460;2023-03-14T15:00:19;7.63;;;1.10;;
6860;SDS011;3469;47.060;15.460;2023-03-14T15:02:49;2.23;;;1.27;;
6860;SDS011;3469;47.060;15.460;2023-03-14T15:05:21;6.47;;;1.27;;
6860;SDS011;3469;47.060;15.460;2023-03-14T15:07:51;7.10;;;0.93;;
6860;SDS011;3469;47.060;15.460;2023-03-14T15:10:20;2.30;;;0.77;;
6860;SDS011;3469;47.060;15.460;2023-03-14T15:12:51;1.30;;;0.90;;
6860;SDS011;3469;47.060;15.460;2023-03-14T15:15:19;1.80;;;0.80;;
6860;SDS011;3469;47.060;15.460;2023-03-14T15:17:48;1.47;;;0.90;;
6860;SDS011;3469;47.060;15.460;2023-03-14T15:20:17;1.10;;;0.57;;
6860;SDS011;3469;47.060;15.460;2023-03-14T15:22:46;3.07;;;0.90;;
6860;SDS011;3469;47.060;15.460;2023-03-14T15:25:14;1.87;;;0.93;;
6860;SDS011;3469;47.060;15.460;2023-03-14T15:28:15;4.73;;;1.00;;
6860;SDS011;3469;47.060;15.460;2023-03-14T15:30:44;1.83;;;0.90;;
6860;SDS011;3469;47.060;15.460;2023-03-14T15:33:14;2.53;;;0.83;;
6860;SDS011;3469;47.060;15.460;2023-03-14T15:35:44;2.93;;;0.80;;
6860;SDS011;3469;47.060;15.460;2023-03-14T15:38:15;2.07;;;0.90;;
6860;SDS011;3469;47.060;15.460;2023-03-14T15:40:46;1.87;;;1.00;;
6860;SDS011;3469;47.060;15.460;2023-03-14T15:43:17;1.70;;;1.13;;
6860;SDS011;3469;47.060;15.460;2023-03-14T15:45:46;2.43;;;1.30;;
6860;SDS011;3469;47.060;15.460;2023-03-14T15:48:17;2.60;;;1.03;;
6860;SDS011;3469;47.060;15.460;2023-03-14T15:50:47;1.53;;;0.97;;